地図

経路データ

SID SEASON NUMBER BASIN SUBBASIN NAME ISO_TIME NATURE LAT LON WMO_WIND WMO_PRES WMO_AGENCY TRACK_TYPE DIST2LAND LANDFALL IFLAG USA_AGENCY USA_ATCF_ID USA_LAT USA_LON USA_RECORD USA_STATUS USA_WIND USA_PRES USA_SSHS USA_R34_NE USA_R34_SE USA_R34_SW USA_R34_NW USA_R50_NE USA_R50_SE USA_R50_SW USA_R50_NW USA_R64_NE USA_R64_SE USA_R64_SW USA_R64_NW USA_POCI USA_ROCI USA_RMW USA_EYE TOKYO_LAT TOKYO_LON TOKYO_GRADE TOKYO_WIND TOKYO_PRES TOKYO_R50_DIR TOKYO_R50_LONG TOKYO_R50_SHORT TOKYO_R30_DIR TOKYO_R30_LONG TOKYO_R30_SHORT TOKYO_LAND CMA_LAT CMA_LON CMA_CAT CMA_WIND CMA_PRES HKO_LAT HKO_LON HKO_CAT HKO_WIND HKO_PRES NEWDELHI_LAT NEWDELHI_LON NEWDELHI_GRADE NEWDELHI_WIND NEWDELHI_PRES NEWDELHI_CI NEWDELHI_DP NEWDELHI_POCI REUNION_LAT REUNION_LON REUNION_TYPE REUNION_WIND REUNION_PRES REUNION_TNUM REUNION_CI REUNION_RMW REUNION_R34_NE REUNION_R34_SE REUNION_R34_SW REUNION_R34_NW REUNION_R50_NE REUNION_R50_SE REUNION_R50_SW REUNION_R50_NW REUNION_R64_NE REUNION_R64_SE REUNION_R64_SW REUNION_R64_NW BOM_LAT BOM_LON BOM_TYPE BOM_WIND BOM_PRES BOM_TNUM BOM_CI BOM_RMW BOM_R34_NE BOM_R34_SE BOM_R34_SW BOM_R34_NW BOM_R50_NE BOM_R50_SE BOM_R50_SW BOM_R50_NW BOM_R64_NE BOM_R64_SE BOM_R64_SW BOM_R64_NW BOM_ROCI BOM_POCI BOM_EYE BOM_POS_METHOD BOM_PRES_METHOD NADI_LAT NADI_LON NADI_CAT NADI_WIND NADI_PRES WELLINGTON_LAT WELLINGTON_LON WELLINGTON_WIND WELLINGTON_PRES DS824_LAT DS824_LON DS824_STAGE DS824_WIND DS824_PRES TD9636_LAT TD9636_LON TD9636_STAGE TD9636_WIND TD9636_PRES TD9635_LAT TD9635_LON TD9635_WIND TD9635_PRES TD9635_ROCI NEUMANN_LAT NEUMANN_LON NEUMANN_CLASS NEUMANN_WIND NEUMANN_PRES MLC_LAT MLC_LON MLC_CLASS MLC_WIND MLC_PRES USA_GUST BOM_GUST BOM_GUST_PER REUNION_GUST REUNION_GUST_PER USA_SEAHGT USA_SEARAD_NE USA_SEARAD_SE USA_SEARAD_SW USA_SEARAD_NW STORM_SPEED STORM_DIR
1940061S14048 1940 13 SI MM NOT_NAMED 1940-02-29 12:00:00 NR -14.2510 48.2680 spur-other 0 0 ______________ -1 5 253
1940061S14048 1940 13 SI MM NOT_NAMED 1940-02-29 15:00:00 NR -14.3298 48.0018 spur-other 0 0 ______________ -1 5 252
1940061S14048 1940 13 SI MM NOT_NAMED 1940-02-29 18:00:00 NR -14.4156 47.7298 spur-other 0 0 ______________ -1 6 251
1940061S14048 1940 13 SI MM NOT_NAMED 1940-02-29 21:00:00 NR -14.5120 47.4479 spur-other 33 24 ______________ -1 6 250
1940061S14048 1940 13 SI MM NOT_NAMED 1940-03-01 00:00:00 NR -14.6225 47.1518 spur-other 31 31 ______________ -1 6 248
1940061S14048 1940 13 SI MM NOT_NAMED 1940-03-01 03:00:00 NR -14.7507 46.8373 spur-other 49 49 ______________ -1 7 246
1940061S14048 1940 13 SI MM NOT_NAMED 1940-03-01 06:00:00 NR -14.9000 46.5000 reunion spur-other 55 55 _____O________ -1 -14.9000 46.5000 99 9.90000 8 248
1940061S14048 1940 13 SI MM NOT_NAMED 1940-03-01 09:00:00 NR -15.0416 46.0769 spur-other 69 69 _____P________ -1 -15.0616 45.9906 99 9 250
1940061S14048 1940 13 SI MM NOT_NAMED 1940-03-01 12:00:00 NR -15.1996 45.6245 spur-other 78 67 _____P________ -1 -15.2284 45.4887 99 10 249
1940061S14048 1940 13 SI MM NOT_NAMED 1940-03-01 15:00:00 NR -15.3775 45.1571 spur-other 67 56 _____P________ -1 -15.4068 45.0026 99 10 247
1940061S14048 1940 13 SI MM NOT_NAMED 1940-03-01 18:00:00 NR -15.5791 44.6891 spur-other 61 56 _____P________ -1 -15.6033 44.5407 99 10 244
1940061S14048 1940 13 SI MM NOT_NAMED 1940-03-01 21:00:00 NR -15.8081 44.2350 spur-other 59 54 _____P________ -1 -15.8242 44.1112 99 10 240
1940061S14048 1940 13 SI MM NOT_NAMED 1940-03-02 00:00:00 NR -16.0685 43.8091 spur-other 67 67 _____P________ -1 -16.0762 43.7225 99 10 234
1940061S14048 1940 13 SI MM NOT_NAMED 1940-03-02 03:00:00 NR -16.3645 43.4259 spur-other 106 106 _____P________ -1 -16.3659 43.3826 99 9 227
1940061S14048 1940 13 SI MM NOT_NAMED 1940-03-02 06:00:00 NR -16.7000 43.1000 reunion spur-other 120 115 _____O________ -1 -16.7000 43.1000 99 9.90000 9 216
1940061S14048 1940 13 SI MM NOT_NAMED 1940-03-02 09:00:00 NR -17.0826 42.8798 spur-other 115 115 _____P________ -1 -17.0826 42.8798 99 9 205
1940061S14048 1940 13 SI MM NOT_NAMED 1940-03-02 12:00:00 NR -17.5082 42.7148 spur-other 127 127 _____P________ -1 -17.5082 42.7148 99 9 197
1940061S14048 1940 13 SI MM NOT_NAMED 1940-03-02 15:00:00 NR -17.9685 42.5946 spur-other 148 147 _____P________ -1 -17.9685 42.5946 99 10 192
1940061S14048 1940 13 SI MM NOT_NAMED 1940-03-02 18:00:00 NR -18.4552 42.5088 spur-other 158 158 _____P________ -1 -18.4552 42.5088 99 10 188
1940061S14048 1940 13 SI MM NOT_NAMED 1940-03-02 21:00:00 NR -18.9600 42.4470 spur-other 181 181 _____P________ -1 -18.9600 42.4470 99 10 186
1940061S14048 1940 13 SI MM NOT_NAMED 1940-03-03 00:00:00 NR -19.4746 42.3987 spur-other 194 180 _____P________ -1 -19.4746 42.3987 99 10 185
1940061S14048 1940 13 SI MM NOT_NAMED 1940-03-03 03:00:00 NR -19.9908 42.3532 spur-other 180 160 _____P________ -1 -19.9908 42.3532 99 10 185
1940061S14048 1940 13 SI MM NOT_NAMED 1940-03-03 06:00:00 NR -20.5000 42.3000 reunion spur-other 160 141 _____O________ -1 -20.5000 42.3000 99 9.90000 10 188
1940061S14048 1940 13 SI MM NOT_NAMED 1940-03-03 09:00:00 NR -21.0203 42.2018 spur-other 141 135 _____P________ -1 -21.0203 42.2018 99 11 190
1940061S14048 1940 13 SI MM NOT_NAMED 1940-03-03 12:00:00 NR -21.5452 42.1028 spur-other 135 121 _____P________ -1 -21.5452 42.1028 99 11 190
1940061S14048 1940 13 SI MM NOT_NAMED 1940-03-03 15:00:00 NR -22.0641 42.0013 spur-other 124 123 _____P________ -1 -22.0641 42.0013 99 10 191
1940061S14048 1940 13 SI MM NOT_NAMED 1940-03-03 18:00:00 NR -22.5665 41.8957 spur-other 137 137 _____P________ -1 -22.5665 41.8957 99 10 192
1940061S14048 1940 13 SI MM NOT_NAMED 1940-03-03 21:00:00 NR -23.0419 41.7843 spur-other 163 163 _____P________ -1 -23.0419 41.7843 99 9 193
1940061S14048 1940 13 SI MM NOT_NAMED 1940-03-04 00:00:00 NR -23.4797 41.6656 spur-other 190 190 _____P________ -1 -23.4797 41.6656 99 9 195
1940061S14048 1940 13 SI MM NOT_NAMED 1940-03-04 03:00:00 NR -23.8692 41.5380 spur-other 214 214 _____P________ -1 -23.8692 41.5380 99 8 199
1940061S14048 1940 13 SI MM NOT_NAMED 1940-03-04 06:00:00 NR -24.2000 41.4000 reunion spur-other 230 230 _____O________ -1 -24.2000 41.4000 99 9.90000 7 204
1940061S14048 1940 13 SI MM NOT_NAMED 1940-03-04 09:00:00 NR -24.4646 41.2506 spur-other 247 247 _____P________ -1 -24.4646 41.2506 99 5 211
1940061S14048 1940 13 SI MM NOT_NAMED 1940-03-04 12:00:00 NR -24.6685 41.0908 spur-other 271 271 _____P________ -1 -24.6685 41.0908 99 5 220
1940061S14048 1940 13 SI MM NOT_NAMED 1940-03-04 15:00:00 NR -24.8202 40.9222 spur-other 293 293 _____P________ -1 -24.8202 40.9222 99 4 230
1940061S14048 1940 13 SI MM NOT_NAMED 1940-03-04 18:00:00 NR -24.9285 40.7463 spur-other 314 314 _____P________ -1 -24.9285 40.7463 99 4 241
1940061S14048 1940 13 SI MM NOT_NAMED 1940-03-04 21:00:00 NR -25.0020 40.5647 spur-other 325 325 _____P________ -1 -25.0020 40.5647 99 4 250
1940061S14048 1940 13 SI MM NOT_NAMED 1940-03-05 00:00:00 NR -25.0494 40.3788 spur-other 345 345 _____P________ -1 -25.0494 40.3788 99 3 257
1940061S14048 1940 13 SI MM NOT_NAMED 1940-03-05 03:00:00 NR -25.0791 40.1901 spur-other 367 367 _____P________ -1 -25.0791 40.1901 99 3 262
1940061S14048 1940 13 SI MM NOT_NAMED 1940-03-05 06:00:00 NR -25.1000 40.0000 reunion spur-other 387 _____O________ -1 -25.1000 40.0000 99 9.90000 3 263

IBTrACS Databaseについて

本データベースは、米国NOAAが公開する1842年以降の世界の熱帯低気圧のベストトラックデータアーカイブInternational Best Track Archive for Climate Stewardship (IBTrACS)を、ウェブで閲覧しやすい形式に変換したものです。

最終更新日:2021-10-25